Time;durP1;ratioP1;P1;durP2;ratioP2;P2;SDS_P1;SDS_P2;PMS_P1;PMS_P2;Temp;Humidity;BMP_temperature;BMP_pressure;BME280_temperature;BME280_humidity;BME280_pressure;Samples;Min_cycle;Max_cycle;Signal;HPM_P1;HPM_P2
2023/07/22 00:02:25;;;;;;;4.97;1.60;;;14.50;99.90;;;;;;5096166;28;20059;-46
2023/07/22 00:04:52;;;;;;;3.85;1.55;;;14.50;99.90;;;;;;5096028;28;20483;-47
2023/07/22 00:07:17;;;;;;;5.15;2.00;;;14.50;99.90;;;;;;5094433;28;20048;-47
2023/07/22 00:09:43;;;;;;;3.90;1.40;;;14.50;99.90;;;;;;5095606;28;20048;-47
2023/07/22 00:12:10;;;;;;;3.97;1.30;;;14.50;99.90;;;;;;5095457;28;20544;-47
2023/07/22 00:14:40;;;;;;;3.58;0.95;;;14.50;99.90;;;;;;5095609;28;20233;-47
2023/07/22 00:17:07;;;;;;;4.60;1.40;;;14.50;99.90;;;;;;5095520;28;20135;-46
2023/07/22 00:19:33;;;;;;;3.78;1.08;;;14.50;99.90;;;;;;5095296;28;20055;-47
2023/07/22 00:21:59;;;;;;;4.70;1.40;;;14.50;99.90;;;;;;5095358;28;20505;-46
2023/07/22 00:24:25;;;;;;;3.30;1.30;;;14.50;99.90;;;;;;5095189;28;20040;-47
2023/07/22 00:26:51;;;;;;;5.53;1.40;;;14.50;99.90;;;;;;5094145;28;20048;-47
2023/07/22 00:29:16;;;;;;;3.20;1.10;;;14.50;99.90;;;;;;5095485;28;20487;-47
2023/07/22 00:31:43;;;;;;;4.10;1.50;;;14.50;99.90;;;;;;5095226;28;20052;-47
2023/07/22 00:34:09;;;;;;;5.47;1.23;;;14.50;99.90;;;;;;5095347;28;20282;-47
2023/07/22 00:36:34;;;;;;;5.70;1.40;;;14.40;99.90;;;;;;5095065;28;20090;-47
2023/07/22 00:39:01;;;;;;;4.50;1.67;;;14.40;99.90;;;;;;5094791;28;20044;-47
2023/07/22 00:41:27;;;;;;;;;;;14.40;99.90;;;;;;5095326;28;20047;-47
2023/07/22 00:43:52;;;;;;;5.55;1.30;;;14.40;99.90;;;;;;5095019;28;19924;-47
2023/07/22 00:46:18;;;;;;;3.63;1.25;;;14.40;99.90;;;;;;5094005;28;20483;-47
2023/07/22 00:48:45;;;;;;;3.40;1.10;;;14.40;99.90;;;;;;5094960;28;20048;-47
2023/07/22 00:51:11;;;;;;;3.55;1.50;;;14.40;99.90;;;;;;5094804;28;20282;-46
2023/07/22 00:53:36;;;;;;;4.50;1.30;;;14.40;99.90;;;;;;5093496;28;20040;-47
2023/07/22 00:56:02;;;;;;;4.73;1.40;;;14.30;99.90;;;;;;5094563;28;20347;-48
2023/07/22 00:58:28;;;;;;;2.72;0.90;;;14.30;99.90;;;;;;5094671;28;20289;-46
2023/07/22 01:00:54;;;;;;;3.22;1.15;;;14.30;99.90;;;;;;5094528;28;20052;-47
2023/07/22 01:03:20;;;;;;;3.58;1.10;;;14.30;99.90;;;;;;5094733;28;20051;-47
2023/07/22 01:05:47;;;;;;;3.28;1.23;;;14.20;99.90;;;;;;5094483;28;20055;-46
2023/07/22 01:08:13;;;;;;;3.40;1.20;;;14.20;99.90;;;;;;5094307;28;20052;-47
2023/07/22 01:10:39;;;;;;;2.97;1.02;;;14.10;99.90;;;;;;5094291;28;20051;-47
2023/07/22 01:13:05;;;;;;;3.53;0.95;;;14.20;99.90;;;;;;5094540;28;20459;-47
2023/07/22 01:15:32;;;;;;;2.55;0.88;;;14.10;99.90;;;;;;5094248;28;20084;-46
2023/07/22 01:18:01;;;;;;;3.22;1.02;;;14.10;99.90;;;;;;5094264;28;20052;-46
2023/07/22 01:20:28;;;;;;;4.93;1.17;;;14.10;99.90;;;;;;5094258;28;20050;-47
2023/07/22 01:22:55;;;;;;;2.60;0.80;;;14.10;99.90;;;;;;5094044;28;20048;-47
2023/07/22 01:25:22;;;;;;;3.20;0.90;;;14.10;99.90;;;;;;5094328;28;20089;-46
2023/07/22 01:27:51;;;;;;;4.22;1.17;;;14.10;99.90;;;;;;5094764;28;20260;-48
2023/07/22 01:30:17;;;;;;;2.60;0.77;;;14.10;99.90;;;;;;5094210;28;20036;-47
2023/07/22 01:32:43;;;;;;;3.88;0.93;;;14.10;99.90;;;;;;5094363;28;20085;-47
2023/07/22 01:35:09;;;;;;;4.10;1.17;;;14.10;99.90;;;;;;5094198;28;20421;-48
2023/07/22 01:37:35;;;;;;;4.68;1.30;;;14.10;99.90;;;;;;5093941;28;20281;-48
2023/07/22 01:40:11;;;;;;;6.32;1.42;;;14.10;99.90;;;;;;5094439;28;20044;-47
2023/07/22 01:42:40;;;;;;;4.32;1.63;;;14.00;99.90;;;;;;5094248;28;20051;-47
2023/07/22 01:45:10;;;;;;;4.57;1.40;;;14.00;99.90;;;;;;5093870;28;20490;-47
2023/07/22 01:47:37;;;;;;;5.40;1.40;;;14.00;99.90;;;;;;5093791;28;20039;-46
2023/07/22 01:50:04;;;;;;;3.95;1.45;;;14.00;99.90;;;;;;5093726;28;20044;-47
2023/07/22 01:52:29;;;;;;;4.10;1.50;;;14.00;99.90;;;;;;5127057;27;20062;-47
2023/07/22 01:54:55;;;;;;;7.20;2.13;;;14.00;99.90;;;;;;5093863;28;20044;-47
2023/07/22 01:57:21;;;;;;;3.65;1.00;;;14.00;99.90;;;;;;5092496;28;20143;-47
2023/07/22 01:59:47;;;;;;;5.13;1.87;;;14.00;99.90;;;;;;5093578;28;20097;-47
2023/07/22 02:02:12;;;;;;;4.65;1.52;;;13.90;99.90;;;;;;5093796;28;20056;-47
2023/07/22 02:04:38;;;;;;;5.93;1.63;;;13.90;99.90;;;;;;5092534;28;20521;-48
2023/07/22 02:07:04;;;;;;;3.83;1.50;;;13.90;99.90;;;;;;5092978;28;20112;-47
2023/07/22 02:09:29;;;;;;;3.47;1.27;;;13.90;99.90;;;;;;5092793;28;20106;-48
2023/07/22 02:11:55;;;;;;;4.53;1.43;;;13.90;99.90;;;;;;5093681;28;20047;-48
2023/07/22 02:14:20;;;;;;;3.90;1.10;;;13.90;99.90;;;;;;5093574;28;20177;-48
2023/07/22 02:16:46;;;;;;;5.20;1.40;;;13.90;99.90;;;;;;5093518;28;20083;-48
2023/07/22 02:19:12;;;;;;;4.72;1.52;;;13.80;99.90;;;;;;5093521;28;20055;-47
2023/07/22 02:21:37;;;;;;;4.80;1.50;;;13.80;99.90;;;;;;5094415;28;20047;-46
2023/07/22 02:24:04;;;;;;;3.73;0.97;;;13.80;99.90;;;;;;5096555;28;20055;-47
2023/07/22 02:26:29;;;;;;;5.22;1.30;;;13.80;99.90;;;;;;5098109;28;20135;-47
2023/07/22 02:28:55;;;;;;;5.73;1.20;;;13.70;99.90;;;;;;5097572;28;20127;-47
2023/07/22 02:31:22;;;;;;;4.07;1.33;;;13.70;99.90;;;;;;5097554;28;20040;-47
2023/07/22 02:33:48;;;;;;;4.07;1.38;;;13.70;99.90;;;;;;5097293;28;20087;-47
2023/07/22 02:36:14;;;;;;;5.15;1.48;;;13.70;99.90;;;;;;5098075;28;20083;-47
2023/07/22 02:38:39;;;;;;;3.50;1.20;;;13.70;99.90;;;;;;5096527;28;20047;-46
2023/07/22 02:41:07;;;;;;;4.17;1.77;;;13.60;99.90;;;;;;5097292;28;20102;-47
2023/07/22 02:43:34;;;;;;;4.00;1.50;;;13.70;99.90;;;;;;5097550;28;20048;-47
2023/07/22 02:46:02;;;;;;;4.72;1.52;;;13.60;99.90;;;;;;5096365;28;20060;-46
2023/07/22 02:48:28;;;;;;;5.10;1.65;;;13.60;99.90;;;;;;5096992;28;20051;-47
2023/07/22 02:50:54;;;;;;;3.67;1.27;;;13.60;99.90;;;;;;5097232;28;20044;-47
2023/07/22 02:53:19;;;;;;;7.27;1.70;;;13.60;99.90;;;;;;5097122;28;20048;-47
2023/07/22 02:55:46;;;;;;;3.83;1.33;;;13.60;99.90;;;;;;5097245;28;20059;-47
2023/07/22 02:58:12;;;;;;;4.60;1.30;;;13.50;99.90;;;;;;5096051;28;20059;-47
2023/07/22 03:00:38;;;;;;;3.55;1.17;;;13.60;99.90;;;;;;5096608;28;20095;-47
2023/07/22 03:03:04;;;;;;;2.72;1.02;;;13.60;99.90;;;;;;5096820;28;20091;-47
2023/07/22 03:05:31;;;;;;;5.40;1.83;;;13.50;99.90;;;;;;5097089;28;20106;-47
2023/07/22 03:07:57;;;;;;;4.45;1.10;;;13.50;99.90;;;;;;5096725;28;20391;-47
2023/07/22 03:10:25;;;;;;;4.10;1.48;;;13.60;99.90;;;;;;5096810;28;20074;-47
2023/07/22 03:12:54;;;;;;;3.58;1.20;;;13.60;99.90;;;;;;5096811;28;20052;-47
2023/07/22 03:15:22;;;;;;;4.22;1.13;;;13.50;99.90;;;;;;5096773;28;20406;-47
2023/07/22 03:17:48;;;;;;;3.97;1.33;;;13.60;99.90;;;;;;5096588;28;20501;-47
2023/07/22 03:20:14;;;;;;;3.83;1.25;;;13.50;99.90;;;;;;5096629;28;20123;-48
2023/07/22 03:22:43;;;;;;;3.28;1.30;;;13.50;99.90;;;;;;5096552;28;20131;-46
2023/07/22 03:25:10;;;;;;;4.15;1.25;;;13.50;99.90;;;;;;5096522;28;20051;-47
2023/07/22 03:27:36;;;;;;;;;;;13.50;99.90;;;;;;5096865;28;20044;-47
2023/07/22 03:30:15;;;;;;;3.55;0.88;;;13.50;99.90;;;;;;5096470;28;19965;-47
2023/07/22 03:32:42;;;;;;;7.85;1.88;;;13.50;99.90;;;;;;5095988;28;20079;-47
2023/07/22 03:35:11;;;;;;;3.88;1.30;;;13.50;99.90;;;;;;5096353;28;20055;-47
2023/07/22 03:37:37;;;;;;;3.30;1.00;;;13.50;99.90;;;;;;5096611;28;20102;-47
2023/07/22 03:40:19;;;;;;;4.30;1.10;;;13.50;99.90;;;;;;5096162;28;20080;-47
2023/07/22 03:42:49;;;;;;;3.13;1.00;;;13.50;99.90;;;;;;5096164;28;20047;-47
2023/07/22 03:45:15;;;;;;;3.60;1.10;;;13.50;99.90;;;;;;5095179;28;20136;-47
2023/07/22 03:47:41;;;;;;;2.83;1.23;;;13.40;99.90;;;;;;5096177;28;20084;-47
2023/07/22 03:50:07;;;;;;;2.93;1.10;;;13.40;99.90;;;;;;5096109;28;20076;-47
2023/07/22 03:52:33;;;;;;;3.42;1.08;;;13.40;99.90;;;;;;5096245;28;20058;-47
2023/07/22 03:54:58;;;;;;;4.27;1.53;;;13.40;99.90;;;;;;5095822;28;20044;-47
2023/07/22 03:57:27;;;;;;;5.97;1.50;;;13.40;99.90;;;;;;5095899;28;20044;-47
2023/07/22 03:59:56;;;;;;;6.10;1.30;;;13.40;99.90;;;;;;5095741;28;20083;-47
2023/07/22 04:02:22;;;;;;;7.80;1.83;;;13.30;99.90;;;;;;5095907;28;20051;-46
2023/07/22 04:04:48;;;;;;;3.90;1.30;;;13.30;99.90;;;;;;5095726;28;20040;-47
2023/07/22 04:07:14;;;;;;;3.73;1.50;;;13.30;99.90;;;;;;5095715;28;20044;-47
2023/07/22 04:09:40;;;;;;;4.20;1.50;;;13.30;99.90;;;;;;5095531;28;20048;-46
2023/07/22 04:12:07;;;;;;;4.63;1.67;;;13.30;99.90;;;;;;5095379;28;20094;-46
2023/07/22 04:14:32;;;;;;;5.20;1.60;;;13.40;99.90;;;;;;5095741;28;20044;-46
2023/07/22 04:16:58;;;;;;;6.67;1.70;;;13.40;99.90;;;;;;5095607;28;20368;-47
2023/07/22 04:19:24;;;;;;;3.92;1.30;;;13.40;99.90;;;;;;5095375;28;20135;-46
2023/07/22 04:21:49;;;;;;;5.70;1.70;;;13.40;99.90;;;;;;5095264;28;20040;-47
2023/07/22 04:24:15;;;;;;;3.77;1.57;;;13.40;99.90;;;;;;5095455;28;20159;-47
2023/07/22 04:26:44;;;;;;;4.80;1.53;;;13.40;99.90;;;;;;5095316;28;20683;-46
2023/07/22 04:29:12;;;;;;;3.53;1.30;;;13.50;99.90;;;;;;5095936;28;20040;-48
2023/07/22 04:31:37;;;;;;;5.13;1.42;;;13.50;99.90;;;;;;5095728;28;20114;-46
2023/07/22 04:34:03;;;;;;;4.75;1.63;;;13.50;99.90;;;;;;5095135;28;20527;-47
2023/07/22 04:36:29;;;;;;;5.80;1.80;;;13.60;99.90;;;;;;5095131;28;20047;-47
2023/07/22 04:38:54;;;;;;;4.27;1.43;;;13.60;99.90;;;;;;5094968;28;20406;-47
2023/07/22 04:41:21;;;;;;;6.30;2.73;;;13.60;99.90;;;;;;5095028;28;20489;-48
2023/07/22 04:43:47;;;;;;;5.35;1.52;;;13.70;99.90;;;;;;5094655;28;20036;-47
2023/07/22 04:46:13;;;;;;;6.00;1.65;;;13.70;99.90;;;;;;5094617;28;20052;-46
2023/07/22 04:48:38;;;;;;;5.28;1.60;;;13.70;99.90;;;;;;5094966;28;20146;-47
2023/07/22 04:51:04;;;;;;;4.50;1.40;;;13.70;99.90;;;;;;5095033;28;20044;-47
2023/07/22 04:53:30;;;;;;;4.60;1.60;;;13.80;99.90;;;;;;5094634;28;20105;-47
2023/07/22 04:55:55;;;;;;;5.17;1.20;;;13.80;99.90;;;;;;5093429;28;20076;-47
2023/07/22 04:58:22;;;;;;;3.33;1.30;;;13.80;99.90;;;;;;5094809;28;20156;-47
2023/07/22 05:00:48;;;;;;;4.70;1.40;;;13.90;99.90;;;;;;5094453;28;20052;-47
2023/07/22 05:03:14;;;;;;;;;;;13.90;99.90;;;;;;5094224;28;20375;-48
2023/07/22 05:05:40;;;;;;;5.07;1.20;;;13.90;99.90;;;;;;5094623;28;19927;-47
2023/07/22 05:08:07;;;;;;;4.45;1.20;;;13.90;99.90;;;;;;5094437;28;20043;-47
2023/07/22 05:10:33;;;;;;;4.60;1.50;;;13.90;99.90;;;;;;5094554;28;20123;-48
2023/07/22 05:12:58;;;;;;;4.53;1.43;;;14.00;99.90;;;;;;5094543;28;20154;-47
2023/07/22 05:15:24;;;;;;;3.27;1.03;;;14.00;99.90;;;;;;5094529;28;20043;-47
2023/07/22 05:17:50;;;;;;;2.95;1.13;;;14.00;99.90;;;;;;5094293;28;20056;-46
2023/07/22 05:20:15;;;;;;;4.47;1.40;;;14.10;99.90;;;;;;5094355;28;20040;-47
2023/07/22 05:22:41;;;;;;;4.67;1.53;;;14.10;99.90;;;;;;5094048;28;20075;-46
2023/07/22 05:25:09;;;;;;;2.67;0.90;;;14.00;99.90;;;;;;5094220;28;20277;-47
2023/07/22 05:27:35;;;;;;;5.25;1.75;;;14.10;99.90;;;;;;5094268;28;20052;-47
2023/07/22 05:30:00;;;;;;;3.78;1.15;;;14.10;99.90;;;;;;5094210;28;20402;-47
2023/07/22 05:32:28;;;;;;;5.07;1.63;;;14.10;99.90;;;;;;5094186;28;20044;-47
2023/07/22 05:34:54;;;;;;;4.57;1.40;;;14.10;99.90;;;;;;5094307;28;20400;-46
2023/07/22 05:37:19;;;;;;;6.00;2.13;;;14.30;99.90;;;;;;5094242;28;20052;-46
2023/07/22 05:39:45;;;;;;;5.37;1.77;;;14.50;99.90;;;;;;5093745;28;20387;-47
2023/07/22 05:42:11;;;;;;;6.00;2.33;;;14.70;99.90;;;;;;5094000;28;20087;-46
2023/07/22 05:44:36;;;;;;;5.40;1.80;;;14.80;99.90;;;;;;5094014;28;20342;-47
2023/07/22 05:47:02;;;;;;;5.23;1.93;;;14.90;99.90;;;;;;5093076;28;20091;-47
2023/07/22 05:49:28;;;;;;;5.00;1.70;;;15.00;99.90;;;;;;5093051;28;20055;-47
2023/07/22 05:51:54;;;;;;;5.13;1.70;;;15.00;99.90;;;;;;5093736;28;20282;-46
2023/07/22 05:54:20;;;;;;;7.10;1.80;;;15.00;99.90;;;;;;5093807;28;20056;-47
2023/07/22 05:56:46;;;;;;;;;;;15.00;99.90;;;;;;5094159;28;20551;-46
2023/07/22 05:59:12;;;;;;;5.22;1.90;;;15.10;99.90;;;;;;5093881;28;19924;-47
2023/07/22 06:01:38;;;;;;;5.27;1.90;;;15.10;99.90;;;;;;5093728;28;20513;-47
2023/07/22 06:04:04;;;;;;;6.05;1.85;;;15.20;99.90;;;;;;5093739;28;20048;-46
2023/07/22 06:06:30;;;;;;;6.18;1.98;;;15.20;99.90;;;;;;5093738;28;20052;-46
2023/07/22 06:08:56;;;;;;;5.93;2.30;;;15.30;99.90;;;;;;5093894;28;20078;-46
2023/07/22 06:11:21;;;;;;;6.37;2.37;;;15.30;99.90;;;;;;5093467;28;20044;-47
2023/07/22 06:13:47;;;;;;;6.10;1.90;;;15.40;99.90;;;;;;5093462;28;20044;-47
2023/07/22 06:16:13;;;;;;;6.05;2.25;;;15.40;99.90;;;;;;5093609;28;20040;-47
2023/07/22 06:18:39;;;;;;;7.07;2.20;;;15.50;99.90;;;;;;5093758;28;20127;-46
2023/07/22 06:21:05;;;;;;;6.63;2.00;;;15.50;99.90;;;;;;5093518;28;20094;-47
2023/07/22 06:23:31;;;;;;;7.43;2.72;;;15.50;99.90;;;;;;5093491;28;20437;-47
2023/07/22 06:25:56;;;;;;;5.97;2.53;;;15.60;99.90;;;;;;5093746;28;20050;-47
2023/07/22 06:28:22;;;;;;;6.63;2.33;;;15.70;99.90;;;;;;5092499;28;20322;-47
2023/07/22 06:30:48;;;;;;;6.60;2.50;;;15.70;99.90;;;;;;5093434;28;20055;-46
2023/07/22 06:33:13;;;;;;;4.70;2.00;;;15.70;99.90;;;;;;5093425;28;20289;-47
2023/07/22 06:35:39;;;;;;;5.60;2.47;;;15.70;99.90;;;;;;5093288;28;20278;-47
2023/07/22 06:38:05;;;;;;;7.40;2.50;;;15.70;99.90;;;;;;5093300;28;20274;-46
2023/07/22 06:40:30;;;;;;;6.20;2.40;;;15.70;99.90;;;;;;5093448;28;20040;-46
2023/07/22 06:42:56;;;;;;;7.07;2.80;;;15.70;99.90;;;;;;5093280;28;20055;-46
2023/07/22 06:45:22;;;;;;;7.23;2.60;;;15.70;99.90;;;;;;5093474;28;20282;-47
2023/07/22 06:47:47;;;;;;;6.27;2.33;;;15.70;99.90;;;;;;5093462;28;20131;-46
2023/07/22 06:50:13;;;;;;;7.27;2.60;;;15.70;99.90;;;;;;5093144;28;20445;-47
2023/07/22 06:52:38;;;;;;;7.43;2.60;;;15.80;99.90;;;;;;5092386;28;20048;-47
2023/07/22 06:55:05;;;;;;;9.30;2.60;;;15.80;99.90;;;;;;5093337;28;20282;-47
2023/07/22 06:57:31;;;;;;;;;;;15.90;99.90;;;;;;5092858;28;20282;-47
2023/07/22 06:59:57;;;;;;;6.97;2.60;;;15.90;99.90;;;;;;5093274;28;19927;-48
2023/07/22 07:02:23;;;;;;;8.73;3.25;;;15.90;99.90;;;;;;5074641;28;20055;-47
2023/07/22 07:04:49;;;;;;;6.68;2.70;;;15.90;99.90;;;;;;5093203;28;20114;-47
2023/07/22 07:07:15;;;;;;;;;;;16.00;99.90;;;;;;5093669;28;20044;-47
2023/07/22 07:09:40;;;;;;;7.05;2.97;;;16.10;99.90;;;;;;5096808;28;19973;-47
2023/07/22 07:12:07;;;;;;;7.43;2.70;;;16.10;99.90;;;;;;5079032;28;20384;-46
2023/07/22 07:14:33;;;;;;;11.00;3.53;;;16.20;99.90;;;;;;5095721;28;20100;-48
2023/07/22 07:16:59;;;;;;;8.55;3.40;;;16.20;99.90;;;;;;5096710;28;20479;-47
2023/07/22 07:19:26;;;;;;;9.43;3.30;;;16.40;99.90;;;;;;5096646;28;20151;-47
2023/07/22 07:21:51;;;;;;;7.72;2.90;;;16.50;99.90;;;;;;5096429;28;20149;-47
2023/07/22 07:24:17;;;;;;;9.30;3.53;;;16.60;99.90;;;;;;5096997;28;20075;-47
2023/07/22 07:26:43;;;;;;;7.28;2.88;;;16.60;99.90;;;;;;5096412;28;20294;-47
2023/07/22 07:29:09;;;;;;;6.82;2.92;;;16.60;99.90;;;;;;5096798;28;20051;-48
2023/07/22 07:31:35;;;;;;;8.10;2.88;;;16.60;99.90;;;;;;5096480;28;20383;-47
2023/07/22 07:34:01;;;;;;;7.60;3.20;;;16.60;99.90;;;;;;5096521;28;20097;-47
2023/07/22 07:36:26;;;;;;;6.68;2.63;;;16.50;99.90;;;;;;5094877;28;20051;-47
2023/07/22 07:38:52;;;;;;;8.48;2.95;;;16.50;99.90;;;;;;5096536;28;20101;-47
2023/07/22 07:41:18;;;;;;;7.28;2.92;;;16.40;99.90;;;;;;5096251;28;20391;-48
2023/07/22 07:43:44;;;;;;;9.00;3.30;;;16.40;99.90;;;;;;5096313;28;20048;-47
2023/07/22 07:46:21;;;;;;;9.18;3.05;;;16.40;99.90;;;;;;5094902;28;20429;-47
2023/07/22 07:48:50;;;;;;;7.47;2.90;;;16.30;99.90;;;;;;5096136;28;20052;-47
2023/07/22 07:51:17;;;;;;;8.85;2.95;;;16.30;99.90;;;;;;5096076;28;20040;-47
2023/07/22 07:53:44;;;;;;;8.38;3.30;;;16.30;99.90;;;;;;5095928;28;20506;-47
2023/07/22 07:56:10;;;;;;;8.38;3.38;;;16.30;99.90;;;;;;5096007;28;20067;-47
2023/07/22 07:58:36;;;;;;;8.32;3.45;;;16.40;99.90;;;;;;5094873;28;20044;-47
2023/07/22 08:01:02;;;;;;;9.05;3.65;;;16.40;99.90;;;;;;5095723;28;20394;-47
2023/07/22 08:03:28;;;;;;;8.73;3.30;;;16.40;99.90;;;;;;5095757;28;20407;-47
2023/07/22 08:05:54;;;;;;;8.48;3.78;;;16.50;99.90;;;;;;5095826;28;20046;-48
2023/07/22 08:08:21;;;;;;;7.03;3.20;;;16.50;99.90;;;;;;5096072;28;20479;-46
2023/07/22 08:10:48;;;;;;;8.05;3.50;;;16.50;99.90;;;;;;5095845;28;20606;-48
2023/07/22 08:13:14;;;;;;;9.23;3.20;;;16.60;99.90;;;;;;5094542;28;20077;-48
2023/07/22 08:15:41;;;;;;;6.88;3.25;;;16.60;99.90;;;;;;5095399;28;20048;-46
2023/07/22 08:18:07;;;;;;;7.93;3.22;;;16.70;99.90;;;;;;5095347;28;20553;-47
2023/07/22 08:20:33;;;;;;;9.23;3.95;;;16.70;99.90;;;;;;5095745;28;20136;-47
2023/07/22 08:22:58;;;;;;;6.93;2.80;;;16.90;99.90;;;;;;5095406;28;20131;-47
2023/07/22 08:25:24;;;;;;;7.05;3.10;;;16.90;99.90;;;;;;5095441;28;20094;-47
2023/07/22 08:27:50;;;;;;;8.23;3.03;;;17.00;99.90;;;;;;5095359;28;20036;-47
2023/07/22 08:30:15;;;;;;;7.20;2.57;;;17.00;99.90;;;;;;5095207;28;20046;-47
2023/07/22 08:32:41;;;;;;;7.47;2.92;;;17.10;99.90;;;;;;5095039;28;20369;-47
2023/07/22 08:35:07;;;;;;;6.63;3.15;;;17.10;99.90;;;;;;5095247;28;20083;-50
2023/07/22 08:37:33;;;;;;;6.93;2.92;;;17.10;99.90;;;;;;5095208;28;20056;-47
2023/07/22 08:39:58;;;;;;;6.77;3.20;;;17.10;99.90;;;;;;5095035;28;20044;-47
2023/07/22 08:42:27;;;;;;;7.30;3.13;;;17.10;99.90;;;;;;5095006;28;20286;-47
2023/07/22 08:44:58;;;;;;;6.25;3.03;;;17.10;99.90;;;;;;5095025;28;20059;-47
2023/07/22 08:47:28;;;;;;;7.15;2.75;;;17.10;99.90;;;;;;5094818;28;20536;-47
2023/07/22 08:49:57;;;;;;;6.90;3.17;;;17.10;99.90;;;;;;5094091;28;20044;-47
2023/07/22 08:52:23;;;;;;;6.97;2.88;;;17.10;99.90;;;;;;5094893;28;20126;-47
2023/07/22 08:54:50;;;;;;;7.50;2.63;;;17.10;99.90;;;;;;5094779;28;20507;-47
2023/07/22 08:57:17;;;;;;;6.65;3.08;;;17.10;99.90;;;;;;5094815;28;20127;-47
2023/07/22 08:59:44;;;;;;;6.85;2.88;;;17.10;99.90;;;;;;5094627;28;20059;-48
2023/07/22 09:02:13;;;;;;;6.13;2.42;;;17.10;99.90;;;;;;5094331;28;20062;-48
2023/07/22 09:04:40;;;;;;;6.30;2.22;;;17.20;99.90;;;;;;5094730;28;20063;-46
2023/07/22 09:07:07;;;;;;;8.73;2.47;;;17.30;99.90;;;;;;5094969;28;20386;-46
2023/07/22 09:09:34;;;;;;;6.38;2.38;;;17.30;99.90;;;;;;5094726;28;20060;-45
2023/07/22 09:12:01;;;;;;;6.60;2.35;;;17.40;99.90;;;;;;5093440;28;20483;-46
2023/07/22 09:14:27;;;;;;;10.68;2.47;;;17.40;99.90;;;;;;5093381;28;20040;-46
2023/07/22 09:16:53;;;;;;;6.20;2.50;;;17.50;99.90;;;;;;5094403;28;20101;-46
2023/07/22 09:19:19;;;;;;;4.95;2.05;;;17.50;99.90;;;;;;5094516;28;20040;-46
2023/07/22 09:21:45;;;;;;;6.30;1.95;;;17.60;99.90;;;;;;5094147;28;20052;-47
2023/07/22 09:24:21;;;;;;;3.50;1.55;;;17.60;99.90;;;;;;5094265;28;20093;-47
2023/07/22 09:26:47;;;;;;;4.43;1.70;;;17.60;99.90;;;;;;5094244;28;20506;-48
2023/07/22 09:29:12;;;;;;;4.60;1.80;;;17.70;99.90;;;;;;5093208;28;20099;-45
2023/07/22 09:31:49;;;;;;;5.80;1.98;;;17.60;99.90;;;;;;5093825;28;20044;-46
2023/07/22 09:34:15;;;;;;;;;;;17.60;99.90;;;;;;5094524;28;20130;-44
2023/07/22 09:36:55;;;;;;;5.53;1.90;;;17.60;99.90;;;;;;5093951;28;19963;-44
2023/07/22 09:39:21;;;;;;;3.72;1.50;;;17.50;99.90;;;;;;5094067;28;20056;-45
2023/07/22 09:41:48;;;;;;;5.03;1.50;;;17.50;99.90;;;;;;5094305;28;20122;-44
2023/07/22 09:44:14;;;;;;;6.82;2.00;;;17.50;99.90;;;;;;5093286;28;20393;-46
2023/07/22 09:46:40;;;;;;;4.60;1.75;;;17.40;99.90;;;;;;5094090;28;20127;-45
2023/07/22 09:49:09;;;;;;;4.45;1.67;;;17.40;99.90;;;;;;5093704;28;20522;-45
2023/07/22 09:51:37;;;;;;;9.07;2.78;;;17.30;99.90;;;;;;5093646;28;20040;-42
2023/07/22 09:54:04;;;;;;;6.10;2.55;;;17.20;99.90;;;;;;5093686;28;20090;-42
2023/07/22 09:56:30;;;;;;;6.10;2.50;;;17.00;99.90;;;;;;5093937;28;20048;-43
2023/07/22 09:58:59;;;;;;;5.00;2.15;;;16.80;99.90;;;;;;5094295;28;20044;-44
2023/07/22 10:01:25;;;;;;;8.60;3.10;;;16.70;99.90;;;;;;5093677;28;20087;-43
2023/07/22 10:03:56;;;;;;;7.45;3.03;;;16.60;99.90;;;;;;5093857;28;20099;-44
2023/07/22 10:06:28;;;;;;;8.70;3.33;;;16.50;99.90;;;;;;5093760;28;20423;-44
2023/07/22 10:08:56;;;;;;;8.68;3.05;;;16.60;99.90;;;;;;5093707;28;20154;-43
2023/07/22 10:11:25;;;;;;;8.52;3.30;;;16.50;99.90;;;;;;5093693;28;20044;-43
2023/07/22 10:13:52;;;;;;;8.60;3.75;;;16.50;99.90;;;;;;5093649;28;20051;-43
2023/07/22 10:16:18;;;;;;;9.20;2.83;;;16.50;99.90;;;;;;5093704;28;20080;-43
2023/07/22 10:18:46;;;;;;;8.60;3.17;;;16.50;99.90;;;;;;5093681;28;20522;-43
2023/07/22 10:21:13;;;;;;;6.75;2.35;;;16.50;99.90;;;;;;5093395;28;20398;-43
2023/07/22 10:23:39;;;;;;;5.93;2.40;;;16.50;99.90;;;;;;5094107;28;20055;-43
2023/07/22 10:26:05;;;;;;;;;;;16.50;99.90;;;;;;5093066;28;20052;-44
2023/07/22 10:28:32;;;;;;;6.05;2.72;;;16.50;99.90;;;;;;5093521;28;19920;-43
2023/07/22 10:30:58;;;;;;;6.13;2.72;;;16.50;99.90;;;;;;5093436;28;20044;-43
2023/07/22 10:33:25;;;;;;;6.72;2.60;;;16.50;99.90;;;;;;5093446;28;20056;-43
2023/07/22 10:36:08;;;;;;;6.03;3.00;;;16.50;99.90;;;;;;5092244;28;20127;-43
2023/07/22 10:38:37;;;;;;;6.47;2.80;;;16.50;99.90;;;;;;5093556;28;20127;-43
2023/07/22 10:41:12;;;;;;;7.78;2.63;;;16.50;99.90;;;;;;5093336;28;20048;-43
2023/07/22 10:43:39;;;;;;;7.75;2.45;;;16.50;99.90;;;;;;5095886;28;20130;-43
2023/07/22 10:46:12;;;;;;;6.20;2.70;;;16.50;99.90;;;;;;5097300;28;20559;-43
2023/07/22 10:48:41;;;;;;;6.57;2.95;;;16.50;99.90;;;;;;5097654;28;20455;-43
2023/07/22 10:51:12;;;;;;;6.90;2.97;;;16.50;99.90;;;;;;5097508;28;20070;-43
2023/07/22 10:53:46;;;;;;;6.72;3.05;;;16.50;99.90;;;;;;5097103;28;20123;-44
2023/07/22 10:56:15;;;;;;;7.03;3.30;;;16.50;99.90;;;;;;5097118;28;20047;-44
2023/07/22 10:58:47;;;;;;;7.18;3.10;;;16.50;99.90;;;;;;5096799;28;20055;-43
2023/07/22 11:01:28;;;;;;;6.05;3.00;;;16.50;99.90;;;;;;5095588;28;20056;-43
2023/07/22 11:04:18;;;;;;;6.80;2.65;;;16.50;99.90;;;;;;5097313;28;20059;-44
2023/07/22 11:06:43;;;;;;;7.75;2.72;;;16.50;99.90;;;;;;5096836;28;20627;-44
2023/07/22 11:09:27;;;;;;;6.17;2.63;;;16.50;99.90;;;;;;5096791;28;20069;-44
2023/07/22 11:12:18;;;;;;;6.38;2.63;;;16.50;99.90;;;;;;5097369;28;20286;-44
2023/07/22 11:14:51;;;;;;;5.70;2.47;;;16.50;99.90;;;;;;5096845;28;20051;-44
2023/07/22 11:17:28;;;;;;;5.45;2.75;;;16.50;99.90;;;;;;5096741;28;20050;-44
2023/07/22 11:19:55;;;;;;;6.93;2.90;;;16.50;99.90;;;;;;5096698;28;20401;-46
2023/07/22 11:22:21;;;;;;;6.20;2.25;;;16.50;99.90;;;;;;5096851;28;20113;-44
2023/07/22 11:24:46;;;;;;;7.65;2.80;;;16.50;99.90;;;;;;5096788;28;20048;-44
2023/07/22 11:27:12;;;;;;;6.68;3.20;;;16.40;99.90;;;;;;5096606;28;20079;-44
2023/07/22 11:29:38;;;;;;;6.53;2.47;;;16.40;99.90;;;;;;5096524;28;20047;-44
2023/07/22 11:32:04;;;;;;;5.40;2.10;;;16.40;99.90;;;;;;5096246;28;20044;-44
2023/07/22 11:34:30;;;;;;;4.72;2.20;;;16.30;99.90;;;;;;5096867;28;20358;-44
2023/07/22 11:36:56;;;;;;;5.45;2.65;;;16.30;99.90;;;;;;5096828;28;20530;-44
2023/07/22 11:39:27;;;;;;;6.00;2.30;;;16.30;99.90;;;;;;5096597;28;20169;-44
2023/07/22 11:41:53;;;;;;;5.50;2.53;;;16.30;99.90;;;;;;5096213;28;20048;-44
2023/07/22 11:44:21;;;;;;;4.00;1.63;;;16.30;99.90;;;;;;5096183;28;20051;-44
2023/07/22 11:46:55;;;;;;;6.88;2.22;;;16.20;99.90;;;;;;5096158;28;20051;-44
2023/07/22 11:49:29;;;;;;;5.10;1.88;;;16.20;99.90;;;;;;5096408;28;20044;-44
2023/07/22 11:52:03;;;;;;;4.78;1.85;;;16.20;99.90;;;;;;5096039;28;20036;-44
2023/07/22 11:54:30;;;;;;;5.43;2.20;;;16.20;99.90;;;;;;5095909;28;20058;-44
2023/07/22 11:56:56;;;;;;;4.60;1.92;;;16.30;99.90;;;;;;5094834;28;20052;-44
2023/07/22 11:59:39;;;;;;;;;;;16.20;99.90;;;;;;5096056;28;20494;-44
2023/07/22 12:02:05;;;;;;;5.70;2.17;;;16.20;99.90;;;;;;5095727;28;19920;-44
2023/07/22 12:04:33;;;;;;;5.80;2.85;;;16.20;99.90;;;;;;5095784;28;20063;-44
2023/07/22 12:06:59;;;;;;;5.80;2.65;;;16.20;99.90;;;;;;5095807;28;20445;-44
2023/07/22 12:09:25;;;;;;;5.93;2.67;;;16.20;99.90;;;;;;5095563;28;20040;-44
2023/07/22 12:11:59;;;;;;;8.45;3.20;;;16.20;99.90;;;;;;5095446;28;20036;-44
2023/07/22 12:14:34;;;;;;;8.60;3.63;;;16.30;99.90;;;;;;5095420;28;20394;-44
2023/07/22 12:17:00;;;;;;;7.97;3.85;;;16.30;99.90;;;;;;5095617;28;20048;-44
2023/07/22 12:19:29;;;;;;;8.63;3.47;;;16.40;99.90;;;;;;5095620;28;20066;-44
2023/07/22 12:21:54;;;;;;;6.93;3.20;;;16.40;99.90;;;;;;5095283;28;20048;-44
2023/07/22 12:24:20;;;;;;;6.82;3.03;;;16.40;99.90;;;;;;5095314;28;20471;-44
2023/07/22 12:26:46;;;;;;;6.72;3.40;;;16.40;99.90;;;;;;5094854;28;20044;-44
2023/07/22 12:29:11;;;;;;;8.27;3.70;;;16.40;99.90;;;;;;5095314;28;20051;-44
2023/07/22 12:31:37;;;;;;;7.45;3.60;;;16.40;99.90;;;;;;5095324;28;20282;-44
2023/07/22 12:34:03;;;;;;;7.17;3.50;;;16.40;99.90;;;;;;5095086;28;20105;-44
2023/07/22 12:36:29;;;;;;;8.32;3.58;;;16.30;99.90;;;;;;5095116;28;20766;-44
2023/07/22 12:38:55;;;;;;;6.97;3.75;;;16.30;99.90;;;;;;5094938;28;20077;-43
2023/07/22 12:41:20;;;;;;;7.83;3.90;;;16.30;99.90;;;;;;5095093;28;20040;-44
2023/07/22 12:43:46;;;;;;;8.57;4.20;;;16.30;99.90;;;;;;5095072;28;20369;-44
2023/07/22 12:46:12;;;;;;;7.00;3.42;;;16.20;99.90;;;;;;5094992;28;20297;-44
2023/07/22 12:48:38;;;;;;;7.47;3.88;;;16.30;99.90;;;;;;5094924;28;20433;-45